Flight Track Log - Related Links

Times and Time Zones

All times are in EST time to prevent confusion due to time zone crossing. See the TCF3494 flight status page for this flight to view local times or setup timezone preferences in your user account.


Time Position Orientation Groundspeed Altitude Reporting Facility
EST Latitude Longitude Course Direction KTS MPH feet Rate Location/Type
Fri 06:43:54 PM 40.8769 -111.9867 356° North 208 239 7,000  Level Salt Lake Center
Fri 06:44:11 PM 40.8950 -111.9892 354° North 217 250 7,500 2,509 Climbing Salt Lake Center
Fri 06:44:49 PM 40.9411 -111.9958 354° North 255 293 9,300 2,710 Climbing Salt Lake Center
Fri 06:45:00 PM 41.0341 -111.3923 82° East  Level FlightAware Approximate
Fri 06:45:13 PM 40.9700 -111.9978 357° North 268 308 10,300  Level Salt Lake Center
Fri 06:46:00 PM 41.0507 -111.2260 82° East  Level FlightAware Approximate
Fri 06:46:15 PM 41.0461 -112.0022 357° North 278 320 13,400  Level Salt Lake Center
Fri 06:47:00 PM 41.0680 -111.0599 75° East  Level FlightAware Approximate
Fri 06:47:16 PM 41.0661 -111.9100 74° East 284 327 15,700  Level Salt Lake Center
Fri 06:48:00 PM 41.1103 -110.9023 66° East  Level FlightAware Approximate
Fri 06:48:18 PM 41.0622 -111.7906 92° East 305 351 17,900  Level Salt Lake Center
Fri 06:49:20 PM 41.0578 -111.6706 93° East 318 366 19,300 1,220 Climbing Salt Lake Center
Fri 06:50:21 PM 41.0525 -111.5331 93° East 374 430 20,400 1,366 Climbing Salt Lake Center
Fri 06:51:23 PM 41.0486 -111.3894 92° East 391 450 22,100 1,463 Climbing Salt Lake Center
Fri 06:52:24 PM 41.0611 -111.2414 84° East 405 466 23,400 1,268 Climbing Salt Lake Center
Fri 06:53:26 PM 41.0758 -111.0833 83° East 428 493 24,700 1,306 Climbing Salt Lake Center
Fri 06:54:28 PM 41.1161 -110.9128 73° East 442 509 26,100 1,317 Climbing Salt Lake Center
Fri 06:55:29 PM 41.1461 -110.7292 78° East 456 525 27,400 1,171 Climbing Salt Lake Center
Fri 06:56:31 PM 41.1728 -110.5700 77° East 461 531 28,500 976 Climbing Salt Lake Center
Fri 06:57:32 PM 41.1981 -110.4075 78° East 468 539 29,400 878 Climbing Salt Lake Center
Fri 06:58:34 PM 41.2292 -110.2150 78° East 479 551 30,300 1,073 Climbing Salt Lake Center
Fri 06:59:35 PM 41.2558 -110.0494 78° East 480 552 31,600 1,317 Climbing Salt Lake Center
Fri 07:00:37 PM 41.2853 -109.8608 78° East 468 539 33,000 1,161 Climbing Salt Lake Center
Fri 07:01:39 PM 41.3100 -109.7008 78° East 464 534 34,000 878 Climbing Salt Lake Center
Fri 07:02:40 PM 41.3350 -109.5417 78° East 461 531 34,800 488 Climbing Salt Lake Center
Fri 07:03:42 PM 41.3628 -109.3547 79° East 461 531 35,000 98 Climbing Salt Lake Center
Fri 07:04:43 PM 41.3864 -109.1886 79° East 477 549 35,000  Level Salt Lake Center
Fri 07:05:45 PM 41.4175 -108.9964 78° East 493 567 35,000  Level Salt Lake Center
Fri 07:06:46 PM 41.4461 -108.7992 79° East 491 565 35,000  Level Salt Lake Center
Fri 07:07:48 PM 41.4706 -108.6286 79° East 491 565 35,000  Level Salt Lake Center
Fri 07:08:50 PM 41.4953 -108.4575 79° East 491 565 35,000  Level Salt Lake Center
Fri 07:09:30 PM 41.5156 -108.3114 79° East 494 568 35,000  Level Denver Center
Fri 07:10:32 PM 41.5397 -108.1403 79° East 493 567 35,000  Level Denver Center
Fri 07:11:54 PM 41.5758 -107.8811 79° East 497 572 35,000  Level Salt Lake Center
Fri 07:12:35 PM 41.5914 -107.7647 80° East 497 572 35,000 175 Level Denver Center
Fri 07:13:37 PM 41.6194 -107.5606 80° East 499 574 35,300 532 Climbing Denver Center
Fri 07:14:39 PM 41.6425 -107.3883 80° East 495 570 36,100 629 Climbing Denver Center
Fri 07:15:41 PM 41.6656 -107.2161 80° East 493 567 36,600 435 Climbing Denver Center
Fri 07:16:43 PM 41.6919 -107.0150 80° East 493 567 37,000 195 Climbing Denver Center
Fri 07:17:44 PM 41.7136 -106.8394 81° East 499 574 37,000  Level Denver Center
Fri 07:18:46 PM 41.7403 -106.6325 80° East 505 581 37,000  Level Denver Center
Fri 07:19:48 PM 41.7633 -106.4564 80° East 508 585 37,000  Level Denver Center
Fri 07:20:50 PM 41.7875 -106.2453 81° East 513 590 37,000  Level Denver Center
Fri 07:21:51 PM 41.8089 -106.0650 81° East 512 589 37,000  Level Denver Center
Fri 07:22:53 PM 41.8356 -105.8517 80° East 519 597 37,000  Level Denver Center
Fri 07:23:55 PM 41.8581 -105.6678 81° East 523 602 37,000  Level Denver Center
Fri 07:24:57 PM 41.8822 -105.4506 81° East 527 606 37,000  Level Denver Center
Fri 07:25:59 PM 41.9028 -105.2656 81° East 526 605 37,000  Level Denver Center
Fri 07:27:01 PM 41.9244 -105.0764 81° East 532 612 37,000  Level Denver Center
Fri 07:28:03 PM 41.9494 -104.8569 81° East 535 616 37,000  Level Denver Center
Fri 07:29:04 PM 41.9689 -104.6669 82° East 537 618 37,000  Level Denver Center
Fri 07:30:06 PM 41.9928 -104.4450 82° East 542 624 37,000  Level Denver Center
Fri 07:31:08 PM 42.0122 -104.2547 82° East 541 623 37,000  Level Denver Center
Fri 07:32:10 PM 42.0356 -104.0333 82° East 540 621 37,000  Level Denver Center
Fri 07:33:12 PM 42.0547 -103.8425 82° East 540 621 37,000  Level Denver Center
Fri 07:34:14 PM 42.0781 -103.6172 82° East 545 627 37,000  Level Denver Center
Fri 07:35:15 PM 42.0964 -103.4261 83° East 541 623 37,000  Level Denver Center
Fri 07:36:17 PM 42.1178 -103.2000 83° East 546 628 37,000  Level Denver Center
Fri 07:37:19 PM 42.1367 -103.0036 83° East 550 633 37,000  Level Denver Center
Fri 07:38:21 PM 42.1564 -102.7753 83° East 551 634 37,000  Level Denver Center
Fri 07:39:23 PM 42.1747 -102.5794 83° East 551 634 37,000  Level Denver Center
Fri 07:40:24 PM 42.1917 -102.3806 83° East 557 641 37,000  Level Denver Center
Fri 07:41:26 PM 42.2122 -102.1514 83° East 556 640 37,000  Level Denver Center
Fri 07:42:28 PM 42.2300 -101.9497 83° East 561 646 37,000  Level Denver Center
Fri 07:43:30 PM 42.2486 -101.7172 84° East 560 644 37,000  Level Denver Center
Fri 07:44:32 PM 42.2650 -101.5153 84° East 562 647 37,000  Level Denver Center
Fri 07:45:34 PM 42.2833 -101.2794 84° East 563 648 37,000  Level Denver Center
Fri 07:46:36 PM 42.2986 -101.0744 84° East 569 655 37,000  Level Denver Center
Fri 07:47:38 PM 42.3172 -100.8361 84° East 571 657 37,000  Level Denver Center
Fri 07:48:40 PM 42.3322 -100.6297 84° East 574 661 37,000  Level Denver Center
Fri 07:49:41 PM 42.3467 -100.4236 85° East 576 663 37,000  Level Denver Center
Fri 07:50:43 PM 42.3628 -100.1817 85° East 577 664 37,000  Level Denver Center
Fri 07:51:44 PM 42.3775 -99.9700 85° East 579 666 37,000  Level Minneapolis Center
Fri 07:52:46 PM 42.3922 -99.7528 85° East 580 667 37,000  Level Minneapolis Center
Fri 07:53:47 PM 42.4061 -99.5328 85° East 584 672 37,000  Level Minneapolis Center
Fri 07:54:51 PM 42.4194 -99.3100 85° East 586 674 37,000  Level Denver Center
Fri 07:55:51 PM 42.4325 -99.0897 85° East 587 676 37,000  Level Minneapolis Center
Fri 07:56:53 PM 42.4447 -98.8686 86° East 588 677 37,000  Level Minneapolis Center
Fri 07:57:54 PM 42.4594 -98.6006 86° East 591 680 37,000  Level Minneapolis Center
Fri 07:58:56 PM 42.4714 -98.3744 86° East 596 686 37,000  Level Minneapolis Center
Fri 07:59:58 PM 42.4833 -98.1492 86° East 597 687 37,000  Level Minneapolis Center
Fri 08:00:59 PM 42.4942 -97.9242 86° East 597 687 37,000  Level Minneapolis Center
Fri 08:02:01 PM 42.5050 -97.6886 86° East 600 690 37,000  Level Minneapolis Center
Fri 08:03:03 PM 42.5158 -97.4619 86° East 601 692 37,000  Level Minneapolis Center
Fri 08:04:05 PM 42.5256 -97.2356 87° East 600 690 37,000  Level Minneapolis Center
Fri 08:05:06 PM 42.5350 -97.0092 87° East 599 689 37,000  Level Minneapolis Center
Fri 08:06:08 PM 42.5439 -96.7822 87° East 601 692 37,000  Level Minneapolis Center
Fri 08:07:10 PM 42.5519 -96.5561 87° East 600 690 37,000  Level Minneapolis Center
Fri 08:08:11 PM 42.5594 -96.3294 87° East 600 690 37,000  Level Minneapolis Center
Fri 08:09:13 PM 42.5694 -96.0575 87° East 600 690 37,000  Level Minneapolis Center
Fri 08:10:15 PM 42.5761 -95.8308 88° East 601 692 37,000  Level Minneapolis Center
Fri 08:11:16 PM 42.5817 -95.6008 88° East 605 696 37,000  Level Minneapolis Center
Fri 08:12:18 PM 42.5878 -95.3706 88° East 609 701 37,000  Level Minneapolis Center
Fri 08:13:19 PM 42.5936 -95.1436 88° East 604 695 37,000 -390 Level Minneapolis Center
Fri 08:14:21 PM 42.5994 -94.9139 88° East 605 696 36,200 -871 Descending Minneapolis Center
Fri 08:15:23 PM 42.6042 -94.6800 88° East 614 707 35,200 -389 Descending Minneapolis Center
Fri 08:17:26 PM 42.6061 -94.1769 90° East 613 705 35,000 -65 Descending Minneapolis Center
Fri 08:18:28 PM 42.5992 -93.9478 92° East 612 704 35,000  Level Minneapolis Center
Fri 08:19:30 PM 42.5908 -93.7192 93° East 612 704 35,000  Level Minneapolis Center
Fri 08:20:32 PM 42.5811 -93.4922 93° East 611 703 35,000  Level Minneapolis Center
Fri 08:21:34 PM 42.5767 -93.2625 91° East 613 705 35,000  Level Minneapolis Center
Fri 08:22:35 PM 42.5678 -93.0361 93° East 610 702 35,000 -49 Level Minneapolis Center
Fri 08:23:37 PM 42.5564 -92.7622 93° East 611 703 34,900 -581 Descending Minneapolis Center
Fri 08:24:39 PM 42.5458 -92.5336 94° East 611 703 33,800 -870 Descending Minneapolis Center
Fri 08:25:48 PM 42.5319 -92.2608 94° East 609 701 33,000 -550 Descending Chicago Center
Fri 08:26:50 PM 42.5231 -92.0364 93° East 605 696 32,600 -726 Descending Chicago Center
Fri 08:27:52 PM 42.5261 -91.8164 89° East 598 688 31,500 -780 Descending Chicago Center
Fri 08:28:53 PM 42.5267 -91.5978 90° East 597 687 31,000 -244 Descending Chicago Center
Fri 08:29:55 PM 42.5275 -91.3325 90° East 601 692 31,000  Level Chicago Center
Fri 08:30:57 PM 42.5261 -91.1117 90° East 599 689 31,000  Level Chicago Center
Fri 08:31:59 PM 42.5247 -90.8878 90° East 602 693 31,000  Level Chicago Center
Fri 08:33:01 PM 42.5256 -90.6625 90° East 604 695 31,000  Level Chicago Center
Fri 08:34:03 PM 42.5236 -90.4408 91° East 598 688 31,000 -1,065 Level Chicago Center
Fri 08:35:05 PM 42.5208 -90.1856 91° East 575 662 28,800 -2,244 Descending Chicago Center
Fri 08:36:06 PM 42.5197 -89.9789 90° East 557 641 26,400 -2,195 Descending Chicago Center
Fri 08:37:08 PM 42.5167 -89.7981 91° East 536 617 24,300 -1,887 Descending Chicago Center
Fri 08:38:10 PM 42.5139 -89.5836 91° East 478 550 22,500 -1,548 Descending Chicago Center
Fri 08:39:12 PM 42.5125 -89.4083 91° East 468 539 21,100 -1,645 Descending Chicago Center
Fri 08:40:14 PM 42.5089 -89.2389 92° East 457 526 19,100 -1,742 Descending Chicago Center
Fri 08:41:16 PM 42.5075 -89.0783 91° East 434 499 17,500 -1,887 Descending Chicago Center
Fri 08:42:18 PM 42.5014 -88.9250 93° East 418 481 15,200 -2,274 Descending Chicago Center
Fri 08:43:20 PM 42.4561 -88.7661 111° Southeast 381 438 12,800 -1,984 Descending Chicago Center
Fri 08:44:22 PM 42.4211 -88.6492 112° Southeast 346 398 11,100 -871 Descending Chicago Center
Fri 08:45:24 PM 42.3869 -88.5394 113° Southeast 323 372 11,000 -48 Descending Chicago Center
Fri 08:46:26 PM 42.3539 -88.4283 112° Southeast 320 368 11,000  Level Chicago Center
Fri 08:47:28 PM 42.3069 -88.3356 124° Southeast 320 368 11,000  Level Chicago Center
Fri 08:48:30 PM 42.2419 -88.2228 128° Southeast 317 365 11,000 -145 Level Chicago Center
Fri 08:49:32 PM 42.1922 -88.1436 130° Southeast 285 328 10,700 -774 Descending Chicago Center
Fri 08:50:34 PM 42.1278 -88.1236 167° South 238 274 9,400 -1,226 Descending Chicago Center
Fri 08:51:05 PM 42.0833 -88.1167 173° South 232 267 8,800 -923 Descending Chicago TRACON
Fri 08:52:05 PM 42.0333 -88.0667 143° Southeast 236 272 8,000 -850 Descending Chicago TRACON
Fri 08:53:05 PM 41.9833 -88.0167 143° Southeast 243 280 7,100 -472 Descending Chicago TRACON
Fri 08:54:12 PM 41.9167 -87.9500 143° Southeast 249 287 7,000 -47 Descending Chicago TRACON
Fri 08:55:12 PM 41.8833 -87.8833 124° Southeast 241 277 7,000 -200 Level Chicago TRACON
Fri 08:56:12 PM 41.8833 -87.8000 90° East 208 239 6,600 -895 Descending Chicago TRACON
Fri 08:57:06 PM 41.8833 -87.7333 90° East 208 239 5,300 -1,250 Descending Chicago TRACON
Fri 08:57:48 PM 41.8739 -87.6850 105° East 211 243 4,600 -1,038 Descending Chicago Center
Fri 08:58:50 PM 41.9022 -87.6503 42° Northeast 197 227 3,500 -774 Descending Chicago Center
Fri 08:59:52 PM 41.9486 -87.6783 336° Northwest 178 205 3,000 -242 Descending Chicago Center
Fri 09:00:54 PM 41.9669 -87.7336 294° West 176 203 3,000 -435 Level Chicago Center
Fri 09:01:56 PM 41.9658 -87.7986 269° West 181 208 2,100 -774 Descending Chicago Center
Fri 09:02:58 PM 41.9650 -87.8497 269° West 162 186 1,400 -387 Descending Chicago Center
Fri 09:04:00 PM 41.9678 -87.8950 275° West 155 178 1,300 -97 Descending Chicago Center

Login

Don't have an account? Register now (free) for customized features, flight alerts, and more!